TimeEDT,TemperatureF,Dew PointF,Humidity,Sea Level PressureIn,VisibilityMPH,Wind Direction,Wind SpeedMPH,Gust SpeedMPH,PrecipitationIn,Events,Conditions,WindDirDegrees,DateUTC
12:53 AM,42.1,39.9,92,29.85,6.0,Calm,Calm,-,0.02,Rain,Light Rain,0,2013-03-16 04:53:00
1:53 AM,42.1,39.9,92,29.81,4.0,Calm,Calm,-,0.01,Rain,Light Rain,0,2013-03-16 05:53:00
2:25 AM,41.0,39.2,93,29.78,2.5,SE,4.6,-,0.01,Rain,Light Rain,130,2013-03-16 06:25:00
2:35 AM,41.0,39.2,93,29.78,3.0,SE,3.5,-,0.01,,Overcast,140,2013-03-16 06:35:00
2:53 AM,41.0,39.9,96,29.77,3.0,SE,4.6,-,0.01,,Overcast,140,2013-03-16 06:53:00
3:11 AM,41.0,39.2,93,29.74,2.5,ESE,3.5,-,N/A,,Overcast,120,2013-03-16 07:11:00
3:42 AM,41.0,39.2,93,29.73,3.0,South,5.8,-,0.00,Rain,Light Rain,170,2013-03-16 07:42:00
3:53 AM,41.0,39.9,96,29.73,2.5,SSE,4.6,-,0.00,,Overcast,150,2013-03-16 07:53:00
4:05 AM,41.0,39.2,93,29.73,3.0,South,6.9,-,N/A,,Overcast,180,2013-03-16 08:05:00
4:13 AM,41.0,39.2,93,29.73,4.0,South,6.9,-,N/A,,Overcast,180,2013-03-16 08:13:00
4:31 AM,41.0,39.2,93,29.71,4.0,SE,4.6,-,N/A,,Overcast,140,2013-03-16 08:31:00
4:38 AM,42.8,39.2,87,29.71,4.0,SSE,4.6,-,N/A,,Overcast,150,2013-03-16 08:38:00
4:53 AM,41.0,39.9,96,29.72,4.0,Calm,Calm,-,0.00,Rain,Light Rain,0,2013-03-16 08:53:00
5:07 AM,41.0,39.2,93,29.71,2.0,East,3.5,-,0.05,Rain,Rain,90,2013-03-16 09:07:00
5:25 AM,41.0,39.2,93,29.69,3.0,SE,8.1,-,0.06,Rain,Light Rain,140,2013-03-16 09:25:00
5:36 AM,41.0,39.2,93,29.69,2.5,SSE,4.6,-,0.07,,Overcast,150,2013-03-16 09:36:00
5:42 AM,42.8,39.2,87,29.68,3.0,SSE,6.9,-,0.07,,Overcast,150,2013-03-16 09:42:00
5:53 AM,42.1,39.9,92,29.69,3.0,South,8.1,-,0.07,,Overcast,170,2013-03-16 09:53:00
6:53 AM,43.0,41.0,93,29.69,5.0,Calm,Calm,-,N/A,,Overcast,0,2013-03-16 10:53:00
7:07 AM,42.8,39.2,87,29.68,5.0,Calm,Calm,-,N/A,,Overcast,0,2013-03-16 11:07:00
7:53 AM,42.1,41.0,96,29.68,4.0,SSE,3.5,-,N/A,,Overcast,150,2013-03-16 11:53:00
8:06 AM,42.8,41.0,93,29.67,2.5,Calm,Calm,-,N/A,,Mostly Cloudy,0,2013-03-16 12:06:00
8:53 AM,43.0,42.1,97,29.66,3.0,Calm,Calm,-,N/A,,Overcast,0,2013-03-16 12:53:00
9:53 AM,46.0,43.0,89,29.62,10.0,South,9.2,18.4,N/A,,Partly Cloudy,180,2013-03-16 13:53:00
10:53 AM,50.0,45.0,83,29.62,10.0,Calm,Calm,-,N/A,,Clear,0,2013-03-16 14:53:00
11:49 AM,51.8,44.6,76,29.62,10.0,WNW,3.5,-,N/A,,Overcast,290,2013-03-16 15:49:00
11:53 AM,52.0,46.0,80,29.63,10.0,West,4.6,-,N/A,,Overcast,280,2013-03-16 15:53:00
12:53 PM,54.0,46.9,77,29.62,10.0,NNW,5.8,-,N/A,,Overcast,330,2013-03-16 16:53:00
1:53 PM,54.0,46.0,75,29.66,10.0,WNW,12.7,21.9,N/A,,Overcast,300,2013-03-16 17:53:00
2:53 PM,52.0,45.0,77,29.70,9.0,WNW,10.4,19.6,N/A,,Overcast,300,2013-03-16 18:53:00
3:53 PM,51.1,42.1,71,29.73,8.0,WNW,13.8,-,N/A,,Overcast,290,2013-03-16 19:53:00
4:17 PM,51.8,42.8,71,29.74,8.0,West,13.8,-,N/A,,Overcast,280,2013-03-16 20:17:00
4:40 PM,50.0,41.0,71,29.76,8.0,WNW,15.0,-,N/A,,Overcast,300,2013-03-16 20:40:00
4:53 PM,50.0,41.0,71,29.78,9.0,WNW,12.7,-,N/A,,Overcast,300,2013-03-16 20:53:00
5:00 PM,48.2,41.0,76,29.77,8.0,NW,18.4,24.2,N/A,,Overcast,310,2013-03-16 21:00:00
5:53 PM,45.0,39.0,80,29.81,8.0,NW,17.3,21.9,N/A,,Overcast,320,2013-03-16 21:53:00
6:05 PM,44.6,37.4,76,29.81,6.0,NW,16.1,23.0,N/A,,Haze,310,2013-03-16 22:05:00
6:53 PM,41.0,35.1,79,29.88,10.0,NNW,11.5,20.7,N/A,,Overcast,330,2013-03-16 22:53:00
7:14 PM,39.2,33.8,81,29.88,10.0,NW,11.5,-,N/A,,Overcast,320,2013-03-16 23:14:00
7:53 PM,37.9,32.0,79,29.92,10.0,NW,13.8,17.3,N/A,,Overcast,320,2013-03-16 23:53:00
8:53 PM,37.0,30.9,79,29.96,10.0,NW,9.2,-,N/A,,Overcast,320,2013-03-17 00:53:00
9:53 PM,35.1,28.9,78,29.97,10.0,North,8.1,-,N/A,,Overcast,350,2013-03-17 01:53:00
10:21 PM,33.8,28.4,81,29.96,10.0,North,6.9,-,N/A,,Overcast,10,2013-03-17 02:21:00
10:53 PM,34.0,28.0,79,29.99,10.0,North,8.1,-,N/A,,Overcast,350,2013-03-17 02:53:00
11:53 PM,33.1,28.0,82,30.01,10.0,North,3.5,-,N/A,,Overcast,360,2013-03-17 03:53:00